createdAt,value
2023-02-22T00:03:32.589Z,6.10
2023-02-22T00:08:37.158Z,6.06
2023-02-22T00:13:45.855Z,5.92
2023-02-22T00:18:50.327Z,5.77
2023-02-22T00:23:58.291Z,5.67
2023-02-22T00:29:01.457Z,5.62
2023-02-22T00:34:04.524Z,5.56
2023-02-22T00:39:08.517Z,5.51
2023-02-22T00:44:11.902Z,5.48
2023-02-22T00:49:17.248Z,5.45
2023-02-22T00:54:21.944Z,5.41
2023-02-22T00:59:24.735Z,5.37
2023-02-22T01:04:30.603Z,5.31
2023-02-22T01:09:35.106Z,5.23
2023-02-22T01:14:40.141Z,5.20
2023-02-22T01:19:43.243Z,5.15
2023-02-22T01:24:46.788Z,5.09
2023-02-22T01:29:50.285Z,5.09
2023-02-22T01:34:56.497Z,5.07
2023-02-22T01:39:59.365Z,5.07
2023-02-22T01:45:30.518Z,5.05
2023-02-22T01:50:37.566Z,4.98
2023-02-22T01:55:43.593Z,4.99
2023-02-22T02:00:45.834Z,4.98
2023-02-22T02:05:52.924Z,4.94
2023-02-22T02:10:58.098Z,4.89
2023-02-22T02:16:01.087Z,4.88
2023-02-22T02:21:16.451Z,4.85
2023-02-22T02:26:57.627Z,4.80
2023-02-22T02:32:27.550Z,4.77
2023-02-22T02:37:56.620Z,4.76
2023-02-22T02:43:29.612Z,4.75
2023-02-22T02:48:35.005Z,4.76
2023-02-22T02:53:43.223Z,4.81
2023-02-22T02:58:49.157Z,4.84
2023-02-22T03:04:38.193Z,4.85
2023-02-22T03:10:21.428Z,4.83
2023-02-22T03:16:06.448Z,4.82
2023-02-22T03:21:25.471Z,4.74
2023-02-22T03:26:36.369Z,4.66
2023-02-22T03:32:09.712Z,4.59
2023-02-22T03:37:19.457Z,4.52
2023-02-22T03:42:26.824Z,4.41
2023-02-22T03:47:40.073Z,4.31
2023-02-22T03:52:45.304Z,4.23
2023-02-22T03:58:05.141Z,4.12
2023-02-22T04:03:08.031Z,4.02
2023-02-22T04:08:13.730Z,3.97
2023-02-22T04:13:20.150Z,3.91
2023-02-22T04:18:28.875Z,3.85
2023-02-22T04:23:32.231Z,3.74
2023-02-22T04:28:34.788Z,3.67
2023-02-22T04:33:46.226Z,3.62
2023-02-22T04:38:52.222Z,3.52
2023-02-22T04:43:55.283Z,3.44
2023-02-22T04:49:01.373Z,3.35
2023-02-22T04:54:06.932Z,3.26
2023-02-22T04:59:17.265Z,3.11
2023-02-22T05:04:22.780Z,3.08
2023-02-22T05:09:27.582Z,3.04
2023-02-22T05:14:30.610Z,2.98
2023-02-22T05:19:36.254Z,2.96
2023-02-22T05:24:39.173Z,2.93
2023-02-22T05:29:41.640Z,2.85
2023-02-22T05:34:45.775Z,2.81
2023-02-22T05:39:48.622Z,2.74
2023-02-22T05:44:51.004Z,2.73
2023-02-22T05:49:57.752Z,2.79
2023-02-22T05:55:00.792Z,2.83
2023-02-22T06:00:06.928Z,2.86
2023-02-22T06:05:32.093Z,2.85
2023-02-22T06:10:36.653Z,2.84
2023-02-22T06:16:01.073Z,2.91
2023-02-22T06:21:04.534Z,2.94
2023-02-22T06:26:07.742Z,3.00
2023-02-22T06:31:11.313Z,3.05
2023-02-22T06:36:14.004Z,3.16
2023-02-22T06:41:19.008Z,3.35
2023-02-22T06:46:31.208Z,3.55
2023-02-22T06:51:37.717Z,3.67
2023-02-22T06:56:40.334Z,3.80
2023-02-22T07:01:45.141Z,3.91
2023-02-22T07:06:53.908Z,4.10
2023-02-22T07:11:58.737Z,4.31
2023-02-22T07:17:00.929Z,4.49
2023-02-22T07:22:02.986Z,4.68
2023-02-22T07:27:05.509Z,4.85
2023-02-22T07:32:08.371Z,5.08
2023-02-22T07:37:11.707Z,5.36
2023-02-22T07:42:14.731Z,5.67
2023-02-22T07:47:17.789Z,5.99
2023-02-22T07:52:21.599Z,6.17
2023-02-22T07:57:24.062Z,6.33
2023-02-22T08:02:26.709Z,6.48
2023-02-22T08:07:29.083Z,6.76
2023-02-22T08:12:31.697Z,6.95
2023-02-22T08:17:34.598Z,7.08
2023-02-22T08:22:37.045Z,7.17
2023-02-22T08:27:39.186Z,7.30
2023-02-22T08:32:46.678Z,7.47
2023-02-22T08:37:52.665Z,7.58
2023-02-22T08:42:55.416Z,7.65
2023-02-22T08:47:59.493Z,7.81
2023-02-22T08:53:04.133Z,7.88
2023-02-22T08:58:10.253Z,8.10
2023-02-22T09:03:14.956Z,8.18
2023-02-22T09:08:17.454Z,8.24
2023-02-22T09:13:19.698Z,8.36
2023-02-22T09:18:24.512Z,8.50
2023-02-22T09:23:28.591Z,8.63
2023-02-22T09:28:31.786Z,8.80
2023-02-22T09:33:35.244Z,9.06
2023-02-22T09:38:37.215Z,9.26
2023-02-22T09:43:49.864Z,9.41
2023-02-22T09:49:02.184Z,9.60
2023-02-22T09:54:15.096Z,9.89
2023-02-22T09:59:29.393Z,10.11
2023-02-22T10:04:45.389Z,10.38
2023-02-22T10:09:49.826Z,10.65
2023-02-22T10:15:29.149Z,10.87
2023-02-22T10:21:03.971Z,11.07
2023-02-22T10:26:46.904Z,11.18
2023-02-22T10:31:57.619Z,11.13
2023-02-22T10:37:25.648Z,11.15
2023-02-22T10:42:30.323Z,11.25
2023-02-22T10:47:33.939Z,11.40
2023-02-22T10:52:36.001Z,11.58
2023-02-22T10:57:42.419Z,11.72
2023-02-22T11:02:58.300Z,11.87
2023-02-22T11:08:23.096Z,11.94
2023-02-22T11:13:31.207Z,11.81
2023-02-22T11:18:35.235Z,11.64
2023-02-22T11:23:44.739Z,11.68
2023-02-22T11:28:56.607Z,11.87
2023-02-22T11:34:02.101Z,12.08
2023-02-22T11:39:11.525Z,12.16
2023-02-22T11:44:21.602Z,12.19
2023-02-22T11:49:33.312Z,12.11
2023-02-22T11:54:46.832Z,12.13
2023-02-22T12:00:24.609Z,12.09
2023-02-22T12:05:40.998Z,12.09
2023-02-22T12:11:01.126Z,12.11
2023-02-22T12:16:28.771Z,12.22
2023-02-22T12:21:36.684Z,12.38
2023-02-22T12:26:48.384Z,12.39
2023-02-22T12:32:19.854Z,12.33
2023-02-22T12:37:28.994Z,12.27
2023-02-22T12:42:54.686Z,12.26
2023-02-22T12:48:33.154Z,12.13
2023-02-22T12:54:01.525Z,12.03
2023-02-22T12:59:39.443Z,12.09
2023-02-22T13:04:47.979Z,12.22
2023-02-22T13:10:16.863Z,12.30
2023-02-22T13:15:53.678Z,12.34
2023-02-22T13:21:26.263Z,12.37
2023-02-22T13:26:46.281Z,12.39
2023-02-22T13:32:04.695Z,12.35
2023-02-22T13:37:41.490Z,12.30
2023-02-22T13:43:27.717Z,12.26
2023-02-22T13:48:58.450Z,12.36
2023-02-22T13:54:46.195Z,12.52
2023-02-22T13:59:49.759Z,12.55
2023-02-22T14:04:52.938Z,12.58
2023-02-22T14:09:57.487Z,12.57
2023-02-22T14:15:30.154Z,12.52
2023-02-22T14:20:38.263Z,12.44
2023-02-22T14:25:42.826Z,12.32
2023-02-22T14:30:54.144Z,12.32
2023-02-22T14:35:56.716Z,12.23
2023-02-22T14:41:00.583Z,12.01
2023-02-22T14:46:05.400Z,11.92
2023-02-22T14:51:25.060Z,11.82
2023-02-22T14:56:40.671Z,11.68
2023-02-22T15:02:09.609Z,11.43
2023-02-22T15:07:35.892Z,11.16
2023-02-22T15:13:09.502Z,10.86
2023-02-22T15:18:23.738Z,10.69
2023-02-22T15:23:33.377Z,10.57
2023-02-22T15:28:41.399Z,10.49
2023-02-22T15:33:52.999Z,10.40
2023-02-22T15:38:59.279Z,10.24
2023-02-22T15:44:22.690Z,10.06
2023-02-22T15:49:33.764Z,9.87
2023-02-22T15:54:52.196Z,9.64
2023-02-22T15:59:57.527Z,9.45
2023-02-22T16:05:07.302Z,9.22
2023-02-22T16:10:36.928Z,8.97
2023-02-22T16:15:39.439Z,8.70
2023-02-22T16:20:42.110Z,8.47
2023-02-22T16:25:44.879Z,8.25
2023-02-22T16:30:57.492Z,8.05
2023-02-22T16:36:04.823Z,7.83
2023-02-22T16:41:07.801Z,7.66
2023-02-22T16:46:09.815Z,7.49
2023-02-22T16:51:24.546Z,7.33
2023-02-22T16:56:30.904Z,7.18
2023-02-22T17:01:35.268Z,7.04
2023-02-22T17:06:37.855Z,6.89
2023-02-22T17:11:41.883Z,6.80
2023-02-22T17:16:47.042Z,6.72
2023-02-22T17:21:49.742Z,6.61
2023-02-22T17:26:53.292Z,6.52
2023-02-22T17:31:55.778Z,6.45
2023-02-22T17:36:58.241Z,6.34
2023-02-22T17:42:01.102Z,6.26
2023-02-22T17:47:09.200Z,6.15
2023-02-22T17:52:15.699Z,6.06
2023-02-22T17:57:21.570Z,5.95
2023-02-22T18:02:27.085Z,5.85
2023-02-22T18:07:32.356Z,5.75
2023-02-22T18:12:34.921Z,5.63
2023-02-22T18:17:47.598Z,5.58
2023-02-22T18:22:51.664Z,5.62
2023-02-22T18:27:55.072Z,5.69
2023-02-22T18:32:57.905Z,5.74
2023-02-22T18:38:00.943Z,5.86
2023-02-22T18:43:03.436Z,5.91
2023-02-22T18:48:06.671Z,6.00
2023-02-22T18:53:08.553Z,6.04
2023-02-22T18:58:11.184Z,6.10
2023-02-22T19:03:12.982Z,6.17
2023-02-22T19:08:15.653Z,6.17
2023-02-22T19:13:21.148Z,6.16
2023-02-22T19:18:23.766Z,6.12
2023-02-22T19:23:26.419Z,6.09
2023-02-22T19:28:34.065Z,6.07
2023-02-22T19:33:36.713Z,6.05
2023-02-22T19:38:39.420Z,5.94
2023-02-22T19:43:44.793Z,5.90
2023-02-22T19:48:48.836Z,5.87
2023-02-22T19:53:51.450Z,5.90
2023-02-22T19:58:57.336Z,5.94
2023-02-22T20:04:06.196Z,5.97
2023-02-22T20:09:14.175Z,5.95
2023-02-22T20:14:20.143Z,5.91
2023-02-22T20:19:22.965Z,5.86
2023-02-22T20:24:25.641Z,5.79
2023-02-22T20:29:31.592Z,5.76
2023-02-22T20:34:37.187Z,5.73
2023-02-22T20:39:39.956Z,5.64
2023-02-22T20:44:45.626Z,5.52
2023-02-22T20:49:48.070Z,5.37
2023-02-22T20:54:50.364Z,5.23
2023-02-22T20:59:52.348Z,5.13
2023-02-22T21:04:55.353Z,4.98
2023-02-22T21:09:58.155Z,4.80
2023-02-22T21:15:00.981Z,4.70
2023-02-22T21:20:10.126Z,4.57
2023-02-22T21:25:14.068Z,4.44
2023-02-22T21:30:17.034Z,4.26
2023-02-22T21:35:24.256Z,4.15
2023-02-22T21:40:27.579Z,4.03
2023-02-22T21:45:31.297Z,3.93
2023-02-22T21:50:37.867Z,3.86
2023-02-22T21:55:40.966Z,3.79
2023-02-22T22:00:43.226Z,3.72
2023-02-22T22:05:48.213Z,3.64
2023-02-22T22:10:55.389Z,3.56
2023-02-22T22:16:06.229Z,3.47
2023-02-22T22:21:14.029Z,3.39
2023-02-22T22:26:20.101Z,3.30
2023-02-22T22:31:24.810Z,3.25
2023-02-22T22:36:27.650Z,3.17
2023-02-22T22:41:29.752Z,3.08
2023-02-22T22:46:41.196Z,2.97
2023-02-22T22:51:47.528Z,2.95
2023-02-22T22:57:06.548Z,2.90
2023-02-22T23:02:11.462Z,2.84
2023-02-22T23:07:15.047Z,2.79
2023-02-22T23:12:31.358Z,2.71
2023-02-22T23:17:45.768Z,2.68
2023-02-22T23:22:48.884Z,2.57
2023-02-22T23:27:54.017Z,2.47
2023-02-22T23:32:57.213Z,2.41
2023-02-22T23:38:00.314Z,2.30
2023-02-22T23:43:11.831Z,2.26
2023-02-22T23:48:15.230Z,2.24
2023-02-22T23:53:18.635Z,2.19
2023-02-22T23:58:27.928Z,2.16
